METAR Data
IDs: Format: Raw Decoded Include TAF

Data at: 1543 UTC 18 Aug 2019

PARY 181456Z AUTO 00000KT 10SM CLR 06/03 A3045 RMK AO2 SLP343 T00610033 56003
PARY 181356Z AUTO 00000KT 10SM CLR 07/04 A3045 RMK AO2 SLP343 T00670039
PARY 181256Z AUTO 00000KT 10SM CLR 06/03 A3045 RMK AO2 SLP343 T00560028
PARY 181156Z AUTO 00000KT 10SM CLR 08/02 A3046 RMK AO2 SLP346 T00830022 10122 20056 58010
PARY 181056Z AUTO 00000KT 10SM CLR 09/02 A3047 RMK AO2 SLP350 T00890022
PARY 180956Z AUTO 00000KT 10SM CLR 10/02 A3048 RMK AO2 SLP353 T01000022
PARY 180856Z AUTO 00000KT 10SM CLR 10/02 A3049 RMK AO2 SLP356 T01000022 56007
PARY 180756Z AUTO 36003KT 10SM CLR 11/03 A3049 RMK AO2 SLP357 T01110028 401560039
PARY 180656Z AUTO 02003KT 10SM CLR 12/02 A3050 RMK AO2 SLP361 T01220022
PARY 180556Z AUTO 02004KT 10SM CLR 12/03 A3051 RMK AO2 SLP365 T01220028 10156 20122 58004
PARY 180456Z AUTO 02003KT 10SM CLR 13/03 A3051 RMK AO2 SLP366 T01330033
PARY 180356Z AUTO VRB04KT 10SM CLR 14/03 A3052 RMK AO2 SLP370 T01440033
PARY 180256Z AUTO 03008KT 10SM CLR 16/03 A3052 RMK AO2 SLP368 T01560033 56005
PARY 180156Z AUTO 01004KT 10SM CLR 16/03 A3052 RMK AO2 SLP369 T01560028
PARY 180056Z AUTO VRB03KT 10SM CLR 16/03 A3053 RMK AO2 SLP371 T01560033
PARY 172356Z AUTO 02006KT 10SM CLR 14/02 A3054 RMK AO2 SLP373 T01440022 10150 20078 58007
PARY 172256Z AUTO VRB06KT 10SM CLR 14/02 A3055 RMK AO2 SLP378 T01440022
PARY 172156Z AUTO 02004KT 10SM CLR 13/03 A3056 RMK AO2 SLP381 T01330028
PARY 172056Z AUTO VRB05KT 10SM CLR 13/03 A3056 RMK AO2 SLP382 T01280028 50006
PARY 171956Z AUTO 00000KT 10SM CLR 12/06 A3056 RMK AO2 SLP382 T01170056
PARY 171856Z AUTO 00000KT 10SM CLR 09/06 A3055 RMK AO2 SLP379 T00940056
PARY 171756Z AUTO 31003KT 10SM CLR 08/06 A3054 RMK AO2 SLP374 T00780056 10078 20039 53014
PARY 171656Z AUTO 00000KT 10SM CLR 07/04 A3053 RMK AO2 SLP369 T00720044
PARY 171556Z AUTO 30003KT 10SM CLR 06/04 A3051 RMK AO2 SLP364 T00560044
PARY 171456Z AUTO 00000KT 10SM CLR 05/04 A3050 RMK AO2 SLP361 T00500044 51014
PARY 171356Z AUTO 00000KT 10SM CLR 06/04 A3049 RMK AO2 SLP356 T00610044
PARY 171256Z AUTO 00000KT 10SM FEW050 07/04 A3047 RMK AO2 SLP353 T00670044
PARY 171156Z AUTO 19003KT 10SM CLR 08/05 A3046 RMK AO2 SLP347 70018 T00780050 10100 20061 51014
PARY 171056Z AUTO 00000KT 10SM CLR 08/05 A3045 RMK AO2 SLP344 T00780050
PARY 170956Z AUTO 00000KT 10SM BKN042 08/06 A3043 RMK AO2 SLP337 T00830056
PARY 170856Z AUTO VRB05KT 10SM SCT040 08/06 A3042 RMK AO2 SLP333 T00830056 51022
PARY 170756Z AUTO VRB04KT 10SM SCT030 OVC036 09/06 A3040 RMK AO2 SLP326 T00940056 401280089
PARY 170556Z AUTO VRB06KT 10SM BKN039 10/05 A3035 RMK AO2 SLP309 T01000050 10128 20100 53011
PARY 170456Z AUTO VRB06KT 10SM SCT041 11/06 A3034 RMK AO2 SLP306 T01060056
PARY 170356Z AUTO 28009G15KT 10SM BKN041 BKN049 10/05 A3032 RMK AO2 SLP298 T01000050